Time;durP1;ratioP1;P1;durP2;ratioP2;P2;SDS_P1;SDS_P2;PMS_P1;PMS_P2;Temp;Humidity;BMP_temperature;BMP_pressure;BME280_temperature;BME280_humidity;BME280_pressure;Samples;Min_cycle;Max_cycle;Signal;HPM_P1;HPM_P2
2022/01/10 00:01:27;;;;;;;19.90;5.68;;;1.20;99.90;;;;;;5028083;28;20056;-94
2022/01/10 00:04:23;;;;;;;;;;;;;;;;;;;;;
2022/01/10 00:07:03;;;;;;;;;;;;;;;;;;;;;
2022/01/10 00:09:59;;;;;;;19.67;5.30;;;1.10;99.90;;;;;;5048030;28;20097;-95
2022/01/10 00:12:29;;;;;;;20.73;5.55;;;1.00;99.90;;;;;;5033060;28;20496;-96
2022/01/10 00:15:24;;;;;;;13.40;5.03;;;1.00;99.90;;;;;;5020291;28;20045;-95
2022/01/10 00:18:00;;;;;;;19.05;4.93;;;0.90;99.90;;;;;;5016510;28;20033;-95
2022/01/10 00:20:54;;;;;;;19.52;6.10;;;0.90;99.90;;;;;;5033030;28;20045;-95
2022/01/10 00:23:28;;;;;;;18.80;6.18;;;0.90;99.90;;;;;;5034812;28;20033;-96
2022/01/10 00:26:13;;;;;;;24.38;6.68;;;0.90;99.90;;;;;;5031147;28;20132;-96
2022/01/10 00:28:47;;;;;;;21.58;7.32;;;0.90;99.90;;;;;;5016186;28;20500;-96
2022/01/10 00:31:20;;;;;;;13.25;4.80;;;0.90;99.90;;;;;;5016498;28;20033;-95
2022/01/10 00:34:09;;;;;;;20.90;6.18;;;0.80;99.90;;;;;;5016820;28;20041;-94
2022/01/10 00:36:41;;;;;;;22.48;5.97;;;0.90;99.90;;;;;;5037546;28;20033;-93
2022/01/10 00:39:12;;;;;;;11.65;5.00;;;0.80;99.90;;;;;;5016581;28;20108;-93
2022/01/10 00:41:49;;;;;;;20.30;6.25;;;0.70;99.90;;;;;;5024079;28;20476;-94
2022/01/10 00:44:24;;;;;;;17.70;6.22;;;0.70;99.90;;;;;;5015459;28;20053;-94
2022/01/10 00:47:01;;;;;;;23.38;7.60;;;0.70;99.90;;;;;;4998096;28;20033;-93
2022/01/10 00:49:33;;;;;;;22.90;6.93;;;0.70;99.90;;;;;;5020659;28;21395;-93
2022/01/10 00:52:37;;;;;;;;;;;;;;;;;;;;;
2022/01/10 00:55:01;;;;;;;20.45;6.75;;;0.70;99.90;;;;;;5007110;28;20042;-93
2022/01/10 00:57:32;;;;;;;24.50;9.52;;;0.60;99.90;;;;;;5017724;28;20024;-92
2022/01/10 01:00:00;;;;;;;25.50;9.32;;;0.70;99.90;;;;;;4999185;28;20057;-92
2022/01/10 01:02:34;;;;;;;24.73;9.43;;;0.70;99.90;;;;;;5015487;28;20464;-91
2022/01/10 01:05:06;;;;;;;21.70;9.15;;;0.70;99.90;;;;;;5014256;28;20036;-92
2022/01/10 01:07:45;;;;;;;25.27;8.27;;;0.70;99.90;;;;;;5015989;28;20022;-92
2022/01/10 01:13:05;;;;;;;24.98;7.60;;;0.70;99.90;;;;;;5017224;28;20132;-92
2022/01/10 01:15:45;;;;;;;19.10;8.27;;;0.70;99.90;;;;;;5019235;28;20018;-91
2022/01/10 01:18:19;;;;;;;44.67;16.05;;;0.60;99.90;;;;;;5023894;28;20025;-90
2022/01/10 01:24:11;;;;;;;;;;;;;;;;;;;;;
2022/01/10 01:26:42;;;;;;;29.23;7.40;;;0.60;99.90;;;;;;5029257;28;20041;-90
2022/01/10 01:29:12;;;;;;;18.33;7.68;;;0.50;99.90;;;;;;5036391;28;20036;-90
2022/01/10 01:31:38;;;;;;;27.20;9.43;;;0.40;99.90;;;;;;5035935;28;20029;-90
2022/01/10 01:34:13;;;;;;;27.10;9.85;;;0.40;99.90;;;;;;5042521;28;20043;-89
2022/01/10 01:36:45;;;;;;;27.35;11.30;;;0.60;99.90;;;;;;5037042;28;20032;-89
2022/01/10 01:39:19;;;;;;;30.17;11.13;;;0.60;99.90;;;;;;5035972;28;20109;-89
2022/01/10 01:41:45;;;;;;;33.28;13.25;;;0.70;99.90;;;;;;5035403;28;20108;-89
2022/01/10 01:44:11;;;;;;;35.35;13.05;;;0.70;99.90;;;;;;5036823;28;20017;-89
2022/01/10 01:46:42;;;;;;;24.83;11.70;;;0.70;99.90;;;;;;5045687;28;20017;-89
2022/01/10 01:49:08;;;;;;;28.67;10.30;;;0.70;99.90;;;;;;5027426;28;20033;-89
2022/01/10 01:51:35;;;;;;;29.23;11.23;;;0.60;99.90;;;;;;5036510;28;20025;-90
2022/01/10 01:54:03;;;;;;;24.73;10.85;;;0.60;99.90;;;;;;5035588;28;20411;-90
2022/01/10 01:56:41;;;;;;;;;;;;;;;;;;;;;
2022/01/10 01:59:17;;;;;;;28.23;10.93;;;0.60;99.90;;;;;;5048837;28;20035;-90
2022/01/10 02:01:46;;;;;;;29.73;10.75;;;0.50;99.90;;;;;;5035807;28;20483;-89
2022/01/10 02:04:21;;;;;;;31.30;10.30;;;0.40;99.90;;;;;;5035591;28;20104;-91
2022/01/10 02:06:59;;;;;;;27.02;11.30;;;0.40;99.90;;;;;;5033478;28;20025;-91
2022/01/10 02:09:30;;;;;;;29.58;10.25;;;0.50;99.90;;;;;;5037904;28;20031;-90
2022/01/10 02:11:56;;;;;;;28.00;9.90;;;0.40;99.90;;;;;;5035379;28;20067;-91
2022/01/10 02:14:29;;;;;;;22.23;9.75;;;0.30;99.90;;;;;;5035716;28;20016;-90
2022/01/10 02:16:56;;;;;;;25.35;8.95;;;0.30;99.90;;;;;;5036090;28;20094;-91
2022/01/10 02:19:25;;;;;;;21.83;10.13;;;0.20;99.90;;;;;;5034058;28;20021;-91
2022/01/10 02:21:54;;;;;;;22.45;9.20;;;0.20;99.90;;;;;;5034744;28;20017;-91
2022/01/10 02:24:23;;;;;;;23.65;9.95;;;0.20;99.90;;;;;;5019300;28;20036;-92
2022/01/10 02:26:54;;;;;;;22.85;9.80;;;0.10;99.90;;;;;;5049943;28;20041;-92
2022/01/10 02:29:26;;;;;;;22.08;10.43;;;0.00;99.90;;;;;;5032861;28;20116;-91
2022/01/10 02:31:56;;;;;;;24.25;10.52;;;0.00;99.90;;;;;;5023426;28;20488;-92
2022/01/10 02:34:25;;;;;;;28.08;10.23;;;-0.10;99.90;;;;;;5033797;28;20130;-91
2022/01/10 02:36:57;;;;;;;22.83;9.45;;;-0.10;99.90;;;;;;5051512;28;20033;-92
2022/01/10 02:39:25;;;;;;;24.75;9.40;;;-0.10;99.90;;;;;;5035565;28;20036;-90
2022/01/10 02:42:01;;;;;;;30.40;10.60;;;-0.10;99.90;;;;;;5035007;28;20453;-91
2022/01/10 02:44:32;;;;;;;26.20;10.35;;;-0.10;99.90;;;;;;5033208;28;20029;-92
2022/01/10 02:47:05;;;;;;;23.67;10.40;;;-0.10;99.90;;;;;;5032225;28;20471;-92
2022/01/10 02:49:31;;;;;;;26.75;10.95;;;-0.20;99.90;;;;;;5015986;28;20044;-91
2022/01/10 02:51:58;;;;;;;27.58;10.95;;;-0.20;99.90;;;;;;5035837;28;20017;-92
2022/01/10 02:54:27;;;;;;;26.02;11.00;;;-0.20;99.90;;;;;;5040964;28;20032;-93
2022/01/10 02:56:58;;;;;;;26.38;11.35;;;-0.30;99.90;;;;;;5039012;28;20055;-92
2022/01/10 02:59:40;;;;;;;27.10;12.02;;;-0.30;99.90;;;;;;5019460;28;20032;-91
2022/01/10 03:02:11;;;;;;;26.92;11.38;;;-0.30;99.90;;;;;;5035895;28;20021;-92
2022/01/10 03:04:44;;;;;;;27.75;12.13;;;-0.30;99.90;;;;;;5003247;28;20107;-93
2022/01/10 03:07:18;;;;;;;29.40;13.52;;;-0.30;99.90;;;;;;5033801;28;20035;-91
2022/01/10 03:09:44;;;;;;;30.52;14.05;;;-0.30;99.90;;;;;;5031677;28;20436;-85
2022/01/10 03:12:10;;;;;;;30.20;13.27;;;-0.20;99.90;;;;;;5032236;28;20025;-84
2022/01/10 03:14:37;;;;;;;24.83;12.50;;;-0.30;99.90;;;;;;5032355;28;20024;-87
2022/01/10 03:17:03;;;;;;;23.30;11.23;;;-0.30;99.90;;;;;;5035266;28;20088;-86
2022/01/10 03:19:28;;;;;;;23.90;9.75;;;-0.40;99.90;;;;;;5042737;28;20029;-86
2022/01/10 03:21:54;;;;;;;27.88;10.82;;;-0.50;99.90;;;;;;5031995;28;20341;-86
2022/01/10 03:24:20;;;;;;;27.70;10.45;;;-0.60;99.90;;;;;;5031486;28;20124;-87
2022/01/10 03:26:48;;;;;;;30.85;10.40;;;-0.60;99.90;;;;;;5032368;28;20493;-87
2022/01/10 03:29:13;;;;;;;26.10;10.93;;;-0.60;99.90;;;;;;5033355;28;20446;-87
2022/01/10 03:31:39;;;;;;;25.38;11.30;;;-0.60;99.90;;;;;;5032446;28;20045;-87
2022/01/10 03:34:11;;;;;;;33.67;12.80;;;-0.60;99.90;;;;;;5015305;28;20468;-88
2022/01/10 03:36:36;;;;;;;31.35;13.05;;;-0.60;99.90;;;;;;5033638;28;20041;-88
2022/01/10 03:39:03;;;;;;;33.92;13.32;;;-0.60;99.90;;;;;;5015345;28;20056;-88
2022/01/10 03:41:28;;;;;;;34.67;14.35;;;-0.60;99.90;;;;;;5033538;28;20026;-88
2022/01/10 03:43:54;;;;;;;30.70;14.43;;;-0.50;99.90;;;;;;5031293;28;20032;-88
2022/01/10 03:46:20;;;;;;;29.95;13.65;;;-0.50;99.90;;;;;;5033154;28;20021;-88
2022/01/10 03:48:48;;;;;;;31.40;14.13;;;-0.50;99.90;;;;;;5031683;28;20029;-88
2022/01/10 03:51:14;;;;;;;28.58;13.88;;;-0.60;99.90;;;;;;5015423;28;20132;-88
2022/01/10 03:53:40;;;;;;;31.63;13.95;;;-0.60;99.90;;;;;;5015037;28;20057;-88
2022/01/10 03:56:06;;;;;;;32.88;14.73;;;-0.60;99.90;;;;;;5015749;28;20120;-87
2022/01/10 03:58:32;;;;;;;31.77;13.88;;;-0.60;99.90;;;;;;5034932;28;20091;-87
2022/01/10 04:00:59;;;;;;;33.17;14.88;;;-0.70;99.90;;;;;;5034754;28;20445;-88
2022/01/10 04:03:25;;;;;;;28.38;13.85;;;-0.70;99.90;;;;;;5035036;28;20056;-88
2022/01/10 04:05:50;;;;;;;41.85;15.80;;;-0.70;99.90;;;;;;5036252;28;20045;-88
2022/01/10 04:08:16;;;;;;;33.90;16.08;;;-0.80;99.90;;;;;;5034436;28;20108;-88
2022/01/10 04:10:42;;;;;;;35.58;15.50;;;-0.80;99.90;;;;;;5035789;28;20504;-88
2022/01/10 04:13:11;;;;;;;34.22;15.60;;;-0.80;99.90;;;;;;5035627;28;20049;-88
2022/01/10 04:15:36;;;;;;;32.10;15.45;;;-0.80;99.90;;;;;;5036313;28;20028;-88
2022/01/10 04:18:02;;;;;;;30.60;15.40;;;-0.80;99.90;;;;;;5034243;28;20017;-88
2022/01/10 04:20:29;;;;;;;35.63;16.70;;;-0.80;99.90;;;;;;5035879;28;20056;-88
2022/01/10 04:22:54;;;;;;;38.63;17.73;;;-0.80;99.90;;;;;;5035004;28;20033;-88
2022/01/10 04:25:20;;;;;;;33.80;15.70;;;-0.80;99.90;;;;;;5034411;28;20017;-88
2022/01/10 04:27:46;;;;;;;34.10;16.20;;;-0.80;99.90;;;;;;5034043;28;20152;-88
2022/01/10 04:30:12;;;;;;;45.03;19.42;;;-0.80;99.90;;;;;;5017873;28;20475;-86
2022/01/10 04:32:39;;;;;;;46.33;19.08;;;-0.80;99.90;;;;;;5034841;28;20400;-87
2022/01/10 04:35:05;;;;;;;35.65;17.13;;;-0.80;99.90;;;;;;5034189;28;20029;-88
2022/01/10 04:37:31;;;;;;;35.50;17.40;;;-0.80;99.90;;;;;;5034179;28;20022;-88
2022/01/10 04:39:57;;;;;;;44.40;20.02;;;-0.80;99.90;;;;;;5034304;28;20021;-87
2022/01/10 04:42:23;;;;;;;37.65;18.60;;;-0.80;99.90;;;;;;5034153;28;20091;-87
2022/01/10 04:44:49;;;;;;;36.97;17.15;;;-0.80;99.90;;;;;;5017459;28;20087;-86
2022/01/10 04:47:15;;;;;;;32.83;16.13;;;-0.80;99.90;;;;;;5034294;28;20071;-86
2022/01/10 04:50:37;;;;;;;40.95;19.23;;;-0.80;99.90;;;;;;5033954;28;20477;-86
2022/01/10 04:52:30;;;;;;;39.63;18.17;;;-0.60;99.90;;;;;;5026832;28;20084;-87
2022/01/10 04:54:57;;;;;;;32.97;17.33;;;-0.70;99.90;;;;;;5033728;28;20026;-86
2022/01/10 04:57:23;;;;;;;36.83;18.30;;;-0.80;99.90;;;;;;5036291;28;20044;-86
2022/01/10 04:59:49;;;;;;;29.58;16.70;;;-0.80;99.90;;;;;;5037075;28;20339;-87
2022/01/10 05:02:15;;;;;;;32.13;16.30;;;-0.80;99.90;;;;;;5034976;28;20056;-87
2022/01/10 05:04:41;;;;;;;37.20;17.27;;;-0.90;99.90;;;;;;5034769;28;20465;-87
2022/01/10 05:07:08;;;;;;;35.20;16.73;;;-0.90;99.90;;;;;;5033637;28;20032;-87
2022/01/10 05:09:34;;;;;;;35.10;18.10;;;-0.90;99.90;;;;;;5017304;28;20029;-87
2022/01/10 05:12:00;;;;;;;38.83;19.42;;;-1.00;99.90;;;;;;5034275;28;20030;-87
2022/01/10 05:14:25;;;;;;;38.38;18.98;;;-0.90;99.90;;;;;;5045927;28;20028;-86
2022/01/10 05:16:52;;;;;;;42.97;18.92;;;-0.90;99.90;;;;;;5021765;28;20037;-87
2022/01/10 05:19:17;;;;;;;36.45;18.23;;;-0.90;99.90;;;;;;5033382;28;20034;-87
2022/01/10 05:21:43;;;;;;;40.85;17.58;;;-0.90;99.90;;;;;;5016966;28;20094;-87
2022/01/10 05:24:09;;;;;;;36.17;15.95;;;-1.00;99.90;;;;;;5016829;28;20452;-87
2022/01/10 05:26:35;;;;;;;39.45;17.17;;;-1.10;99.90;;;;;;5033506;28;20045;-87
2022/01/10 05:29:02;;;;;;;37.45;16.20;;;-1.20;99.90;;;;;;5017488;28;20048;-87
2022/01/10 05:31:33;;;;;;;37.03;16.98;;;-1.20;99.90;;;;;;5032954;28;20080;-86
2022/01/10 05:33:59;;;;;;;35.55;17.77;;;-1.20;99.90;;;;;;5035098;28;20107;-87
2022/01/10 05:36:25;;;;;;;38.47;16.77;;;-1.20;99.90;;;;;;5033076;28;20037;-86
2022/01/10 05:38:51;;;;;;;33.03;17.90;;;-1.20;99.90;;;;;;5016556;28;20029;-87
2022/01/10 05:41:17;;;;;;;42.05;19.60;;;-1.20;99.90;;;;;;5032926;28;20392;-87
2022/01/10 05:43:43;;;;;;;44.88;19.35;;;-1.10;99.90;;;;;;5033097;28;20026;-87
2022/01/10 05:46:12;;;;;;;34.90;17.95;;;-1.10;99.90;;;;;;5034321;28;20022;-87
2022/01/10 05:48:40;;;;;;;40.42;20.08;;;-1.10;99.90;;;;;;5016432;28;20446;-86
2022/01/10 05:51:06;;;;;;;44.70;20.83;;;-1.10;99.90;;;;;;5033117;28;20026;-85
2022/01/10 05:53:31;;;;;;;37.58;18.77;;;-1.10;99.90;;;;;;5032964;28;20026;-86
2022/01/10 05:55:57;;;;;;;41.03;19.63;;;-1.00;99.90;;;;;;5033443;28;20029;-86
2022/01/10 05:58:23;;;;;;;40.75;19.42;;;-1.10;99.90;;;;;;5033578;28;20125;-85
2022/01/10 06:00:49;;;;;;;41.35;19.30;;;-1.10;99.90;;;;;;5032708;28;20445;-86
2022/01/10 06:03:15;;;;;;;40.00;20.05;;;-1.10;99.90;;;;;;5032907;28;20061;-86
2022/01/10 06:05:40;;;;;;;41.33;21.30;;;-1.10;99.90;;;;;;5032563;28;20030;-85
2022/01/10 06:08:09;;;;;;;40.13;20.08;;;-1.10;99.90;;;;;;5032869;28;20045;-85
2022/01/10 06:10:36;;;;;;;39.97;20.77;;;-1.20;99.90;;;;;;5015961;28;20062;-85
2022/01/10 06:13:02;;;;;;;46.17;22.98;;;-1.20;99.90;;;;;;5032551;28;20032;-85
2022/01/10 06:15:28;;;;;;;49.80;21.63;;;-1.10;99.90;;;;;;5032282;28;20145;-87
2022/01/10 06:17:54;;;;;;;39.15;20.02;;;-1.10;99.90;;;;;;5033706;28;20075;-89
2022/01/10 06:20:20;;;;;;;46.28;23.88;;;-1.20;99.90;;;;;;5033664;28;20033;-86
2022/01/10 06:22:45;;;;;;;68.53;31.33;;;-1.10;99.90;;;;;;5031859;28;20025;-82
2022/01/10 06:25:17;;;;;;;58.38;25.48;;;-1.10;99.90;;;;;;5019148;28;20484;-93
2022/01/10 06:27:46;;;;;;;;;;;-1.00;99.90;;;;;;5033545;28;20053;-87
2022/01/10 06:30:17;;;;;;;67.38;32.15;;;-1.00;99.90;;;;;;5017295;28;19917;-86
2022/01/10 06:36:05;;;;;;;44.83;21.92;;;-1.10;99.90;;;;;;5026189;28;20496;-87
2022/01/10 06:38:33;;;;;;;49.83;22.63;;;-1.20;99.90;;;;;;5032991;28;20373;-85
2022/01/10 06:40:58;;;;;;;36.05;20.13;;;-1.20;99.90;;;;;;5032581;28;20033;-85
2022/01/10 06:43:24;;;;;;;48.42;22.15;;;-1.20;99.90;;;;;;5033286;28;20036;-89
2022/01/10 06:46:43;;;;;;;;;;;;;;;;;;;;;
2022/01/10 06:52:00;;;;;;;43.75;21.92;;;-1.30;99.90;;;;;;5035350;28;20036;-91
2022/01/10 06:54:26;;;;;;;48.03;22.45;;;-1.30;99.90;;;;;;5059854;22;20053;-36
2022/01/10 06:56:52;;;;;;;48.20;23.80;;;-1.30;99.90;;;;;;5083149;28;20029;-36
2022/01/10 06:59:19;;;;;;;46.42;22.65;;;-1.30;99.90;;;;;;5082892;28;20059;-35
2022/01/10 07:01:46;;;;;;;41.20;21.77;;;-1.20;99.90;;;;;;5082031;28;20029;-36
2022/01/10 07:04:12;;;;;;;45.90;23.27;;;-1.20;99.90;;;;;;5083115;28;20394;-35
2022/01/10 07:06:40;;;;;;;48.35;23.25;;;-1.20;99.90;;;;;;5081244;28;20041;-35
2022/01/10 07:09:07;;;;;;;46.17;23.08;;;-1.20;99.90;;;;;;5082814;28;20036;-36
2022/01/10 07:11:33;;;;;;;40.40;20.40;;;-1.30;99.90;;;;;;5082654;28;20029;-35
2022/01/10 07:13:59;;;;;;;52.97;25.70;;;-1.40;99.90;;;;;;5082720;28;20033;-36
2022/01/10 07:16:24;;;;;;;48.15;24.33;;;-1.30;99.90;;;;;;5082693;28;20031;-35
2022/01/10 07:18:50;;;;;;;46.78;21.98;;;-1.30;99.90;;;;;;5081283;28;20521;-35
2022/01/10 07:21:16;;;;;;;38.08;21.88;;;-1.30;99.90;;;;;;5064608;28;20047;-36
2022/01/10 07:23:41;;;;;;;51.05;25.10;;;-1.40;99.90;;;;;;5063646;28;20025;-35
2022/01/10 07:26:07;;;;;;;42.78;23.55;;;-1.40;99.90;;;;;;5083232;28;20071;-36
2022/01/10 07:28:33;;;;;;;54.38;26.15;;;-1.30;99.90;;;;;;5082290;28;20064;-35
2022/01/10 07:30:59;;;;;;;51.00;23.58;;;-1.30;99.90;;;;;;5065204;28;20039;-36
2022/01/10 07:33:24;;;;;;;49.72;24.20;;;-1.30;99.90;;;;;;5069004;28;20032;-35
2022/01/10 07:35:50;;;;;;;55.50;26.58;;;-1.40;99.90;;;;;;5067119;28;20083;-35
2022/01/10 07:38:16;;;;;;;47.75;25.75;;;-1.30;99.90;;;;;;5086931;28;20032;-35
2022/01/10 07:40:44;;;;;;;44.30;23.27;;;-1.20;99.90;;;;;;5084991;28;20025;-40
2022/01/10 07:43:10;;;;;;;54.60;26.42;;;-1.30;99.90;;;;;;5067956;28;20044;-36
2022/01/10 07:45:35;;;;;;;49.42;23.50;;;-1.30;99.90;;;;;;5084177;28;20025;-35
2022/01/10 07:48:04;;;;;;;42.47;23.27;;;-1.20;99.90;;;;;;5085241;28;20032;-36
2022/01/10 07:50:29;;;;;;;48.63;25.20;;;-1.30;99.90;;;;;;5066431;28;20044;-36
2022/01/10 07:52:55;;;;;;;44.85;22.90;;;-1.30;99.90;;;;;;5084488;28;20123;-40
2022/01/10 07:55:21;;;;;;;45.13;23.65;;;-1.30;99.90;;;;;;5085570;28;20415;-40
2022/01/10 07:57:47;;;;;;;47.03;22.92;;;-1.30;99.90;;;;;;5083481;28;20039;-38
2022/01/10 08:00:13;;;;;;;41.63;22.25;;;-1.30;99.90;;;;;;5085013;28;20032;-40
2022/01/10 08:02:39;;;;;;;46.30;22.65;;;-1.30;99.90;;;;;;5083903;28;20029;-36
2022/01/10 08:05:08;;;;;;;48.70;23.20;;;-1.30;99.90;;;;;;5085331;28;20496;-40
2022/01/10 08:07:34;;;;;;;46.47;24.98;;;-1.40;99.90;;;;;;5084661;28;20025;-36
2022/01/10 08:10:00;;;;;;;41.75;22.33;;;-1.30;99.90;;;;;;5082459;28;20044;-36
2022/01/10 08:12:26;;;;;;;45.53;24.30;;;-1.30;99.90;;;;;;5085240;28;20032;-38
2022/01/10 08:14:52;;;;;;;40.70;22.52;;;-1.30;99.90;;;;;;5083543;28;20063;-38
2022/01/10 08:17:17;;;;;;;39.67;21.50;;;-1.30;99.90;;;;;;5084920;28;20032;-39
2022/01/10 08:19:43;;;;;;;46.33;24.90;;;-1.20;99.90;;;;;;5065310;28;20776;-36
2022/01/10 08:22:09;;;;;;;44.92;23.58;;;-1.20;99.90;;;;;;5083931;28;20029;-36
2022/01/10 08:24:34;;;;;;;39.25;22.20;;;-1.20;99.90;;;;;;5066162;28;20031;-37
2022/01/10 08:27:00;;;;;;;47.17;26.10;;;-1.20;99.90;;;;;;5083878;28;20067;-36
2022/01/10 08:29:26;;;;;;;34.85;21.75;;;-1.20;99.90;;;;;;5085166;28;20045;-36
2022/01/10 08:31:52;;;;;;;40.75;23.73;;;-1.20;99.90;;;;;;5082959;28;20032;-36
2022/01/10 08:34:18;;;;;;;41.30;22.92;;;-1.10;99.90;;;;;;5085205;28;20032;-36
2022/01/10 08:36:43;;;;;;;42.10;23.20;;;-1.10;99.90;;;;;;5082987;28;20033;-36
2022/01/10 08:39:10;;;;;;;56.00;25.20;;;-1.00;99.90;;;;;;5066182;28;20024;-35
2022/01/10 08:41:36;;;;;;;38.83;21.60;;;-1.00;99.90;;;;;;5064883;28;20036;-36
2022/01/10 08:44:05;;;;;;;48.15;26.58;;;-1.00;99.90;;;;;;5083446;28;20029;-38
2022/01/10 08:46:31;;;;;;;48.00;27.05;;;-0.90;99.90;;;;;;5066635;28;20028;-36
2022/01/10 08:48:57;;;;;;;50.97;26.23;;;-0.90;99.90;;;;;;5082220;28;20045;-37
2022/01/10 08:51:24;;;;;;;46.63;25.95;;;-0.90;99.90;;;;;;5083954;28;20032;-39
2022/01/10 08:53:50;;;;;;;47.40;25.52;;;-0.80;99.90;;;;;;5082048;28;20025;-36
2022/01/10 08:56:15;;;;;;;52.25;30.67;;;-0.70;99.90;;;;;;5047720;28;20589;-36
2022/01/10 08:58:44;;;;;;;50.95;30.77;;;-0.70;99.90;;;;;;5043409;28;20033;-35
2022/01/10 09:01:10;;;;;;;63.20;34.75;;;-0.60;99.90;;;;;;5043391;28;20509;-35
2022/01/10 09:03:38;;;;;;;63.88;33.50;;;-0.60;99.90;;;;;;5043872;28;20049;-35
2022/01/10 09:06:04;;;;;;;58.60;32.35;;;-0.50;99.90;;;;;;5043091;28;20026;-36
2022/01/10 09:08:33;;;;;;;64.70;36.85;;;-0.50;99.90;;;;;;5044192;28;20040;-36
2022/01/10 09:11:03;;;;;;;70.55;38.88;;;-0.40;99.90;;;;;;5042660;28;20347;-36
2022/01/10 09:13:29;;;;;;;59.30;33.92;;;-0.30;99.90;;;;;;5043543;28;20040;-36
2022/01/10 09:15:55;;;;;;;54.95;31.42;;;-0.20;99.90;;;;;;5043295;28;20030;-35
2022/01/10 09:18:21;;;;;;;63.10;33.45;;;-0.20;99.90;;;;;;5042759;28;20030;-35
2022/01/10 09:20:47;;;;;;;62.30;36.15;;;0.00;99.90;;;;;;5043277;28;20032;-35
2022/01/10 09:23:13;;;;;;;56.25;32.00;;;0.00;99.90;;;;;;5042389;28;20081;-35
2022/01/10 09:25:39;;;;;;;53.70;30.50;;;0.00;99.90;;;;;;5043264;28;20040;-35
2022/01/10 09:28:05;;;;;;;47.78;28.80;;;0.10;99.90;;;;;;5040539;28;20022;-35
2022/01/10 09:30:31;;;;;;;55.17;30.65;;;0.10;99.90;;;;;;5043573;28;20091;-35
2022/01/10 09:32:57;;;;;;;51.30;32.10;;;0.20;99.90;;;;;;5043285;28;20071;-36
2022/01/10 09:35:24;;;;;;;57.83;36.10;;;0.20;99.90;;;;;;5042316;28;20087;-36
2022/01/10 09:37:50;;;;;;;49.95;31.65;;;0.30;99.90;;;;;;5043484;28;20029;-35
2022/01/10 09:40:18;;;;;;;55.40;31.85;;;0.30;99.90;;;;;;5042002;28;20029;-38
2022/01/10 09:42:45;;;;;;;59.70;34.78;;;0.40;99.90;;;;;;5043495;28;20030;-35
2022/01/10 09:45:11;;;;;;;54.17;31.17;;;0.40;99.90;;;;;;5041329;28;20457;-36
2022/01/10 09:47:37;;;;;;;45.25;28.05;;;0.50;99.90;;;;;;5043367;28;20060;-35
2022/01/10 09:50:06;;;;;;;54.13;30.27;;;0.60;99.90;;;;;;5041229;28;20037;-43
2022/01/10 09:52:34;;;;;;;46.92;29.25;;;0.60;99.90;;;;;;5024457;28;20041;-36
2022/01/10 09:54:59;;;;;;;49.97;29.75;;;0.70;99.90;;;;;;5052165;28;20079;-36
2022/01/10 09:57:25;;;;;;;48.75;29.33;;;0.70;99.90;;;;;;5063269;28;20036;-36
2022/01/10 09:59:51;;;;;;;53.17;30.60;;;0.70;99.90;;;;;;5045143;28;20170;-35
2022/01/10 10:02:17;;;;;;;49.95;29.80;;;0.80;99.90;;;;;;5061168;28;20365;-36
2022/01/10 10:04:44;;;;;;;55.28;32.17;;;0.80;99.90;;;;;;5045446;28;20039;-35
2022/01/10 10:07:11;;;;;;;50.53;29.10;;;0.90;99.90;;;;;;5079849;28;20128;-36
2022/01/10 10:09:37;;;;;;;53.30;30.33;;;0.90;99.90;;;;;;5063987;28;20032;-37
2022/01/10 10:12:04;;;;;;;51.65;30.50;;;1.00;99.90;;;;;;5083131;28;20035;-36
2022/01/10 10:14:31;;;;;;;50.20;29.73;;;1.10;99.90;;;;;;5062433;28;20589;-36
2022/01/10 10:17:06;;;;;;;51.92;30.92;;;1.10;99.90;;;;;;5082741;28;20028;-37
2022/01/10 10:19:32;;;;;;;55.00;32.25;;;1.10;99.90;;;;;;5081074;28;20029;-41
2022/01/10 10:21:58;;;;;;;58.28;32.97;;;1.20;99.90;;;;;;5064112;28;20037;-36
2022/01/10 10:24:25;;;;;;;56.08;33.60;;;1.30;99.90;;;;;;5081629;28;20391;-36
2022/01/10 10:26:52;;;;;;;52.70;33.40;;;1.30;99.90;;;;;;5081983;28;20033;-36
2022/01/10 10:29:19;;;;;;;52.53;32.58;;;1.30;99.90;;;;;;5061619;28;20048;-36
2022/01/10 10:31:56;;;;;;;51.83;31.02;;;1.40;99.90;;;;;;5073292;28;20467;-36
2022/01/10 10:34:27;;;;;;;69.20;41.17;;;1.40;99.90;;;;;;5070179;28;20044;-41
2022/01/10 10:36:59;;;;;;;;;;;1.50;99.90;;;;;;5039286;28;20028;-36
2022/01/10 10:39:26;;;;;;;95.32;54.55;;;1.60;99.90;;;;;;5076207;28;19927;-38
2022/01/10 10:41:59;;;;;;;74.45;44.97;;;1.60;99.90;;;;;;5074524;28;20461;-36
2022/01/10 10:44:25;;;;;;;60.15;34.47;;;1.70;99.90;;;;;;5058240;28;20629;-37
2022/01/10 10:46:51;;;;;;;61.38;33.97;;;1.70;99.90;;;;;;5077158;28;20036;-38
2022/01/10 10:49:20;;;;;;;55.20;33.30;;;1.80;99.90;;;;;;5074526;28;20036;-37
2022/01/10 10:51:50;;;;;;;60.05;34.08;;;1.80;99.90;;;;;;5078173;28;20036;-37
2022/01/10 10:54:17;;;;;;;60.55;33.38;;;1.90;99.90;;;;;;5021350;28;20332;-38
2022/01/10 10:56:44;;;;;;;60.92;33.55;;;1.90;99.90;;;;;;5070914;28;20073;-38
2022/01/10 10:59:11;;;;;;;58.60;34.67;;;2.00;99.90;;;;;;5077289;28;20033;-37
2022/01/10 11:01:39;;;;;;;61.15;34.90;;;2.10;99.90;;;;;;5074547;28;20031;-37
2022/01/10 11:04:06;;;;;;;62.58;34.10;;;2.10;99.90;;;;;;5054030;28;20057;-35
2022/01/10 11:06:33;;;;;;;63.25;36.50;;;2.20;99.90;;;;;;5062954;28;20028;-36
2022/01/10 11:09:03;;;;;;;64.10;36.97;;;2.20;99.90;;;;;;5065958;28;20029;-36
2022/01/10 11:11:29;;;;;;;64.32;34.72;;;2.30;99.90;;;;;;5064528;28;20134;-35
2022/01/10 11:13:56;;;;;;;64.80;34.42;;;2.40;99.90;;;;;;5059305;28;20049;-35
2022/01/10 11:16:23;;;;;;;57.17;31.50;;;2.40;99.90;;;;;;5062734;28;20025;-37
2022/01/10 11:18:49;;;;;;;57.38;33.85;;;2.50;99.90;;;;;;5064552;28;20037;-35
2022/01/10 11:21:15;;;;;;;55.65;34.58;;;2.50;99.90;;;;;;5064696;28;20025;-35
2022/01/10 11:23:45;;;;;;;63.22;35.05;;;2.60;99.90;;;;;;5062431;28;20054;-35
2022/01/10 11:26:12;;;;;;;62.72;37.78;;;2.70;99.90;;;;;;5065684;28;20055;-35
2022/01/10 11:28:55;;;;;;;63.65;36.35;;;2.80;99.90;;;;;;5065492;28;20045;-36
2022/01/10 11:31:27;;;;;;;64.53;35.35;;;3.00;99.90;;;;;;5063418;28;20036;-36
2022/01/10 11:33:55;;;;;;;64.32;36.22;;;3.00;99.90;;;;;;5021217;28;20067;-35
2022/01/10 11:36:24;;;;;;;65.05;36.00;;;3.10;99.90;;;;;;5063358;28;20017;-36
2022/01/10 11:39:07;;;;;;;54.13;33.28;;;3.20;99.90;;;;;;5065979;28;20021;-37
2022/01/10 11:41:33;;;;;;;60.30;34.22;;;3.20;99.90;;;;;;5063807;28;20025;-37
2022/01/10 11:44:04;;;;;;;61.78;34.38;;;3.30;99.90;;;;;;5064546;28;20032;-37
2022/01/10 11:46:38;;;;;;;65.05;35.22;;;3.40;99.90;;;;;;5063339;28;20028;-37
2022/01/10 11:49:12;;;;;;;57.55;33.78;;;3.40;99.90;;;;;;5063695;28;20029;-37
2022/01/10 11:51:39;;;;;;;57.63;33.97;;;3.50;99.90;;;;;;5059734;28;20039;-38
2022/01/10 11:54:14;;;;;;;55.70;33.30;;;3.50;99.90;;;;;;5066057;28;20108;-38
2022/01/10 11:57:00;;;;;;;58.65;33.55;;;3.50;99.90;;;;;;5062951;28;20048;-37
2022/01/10 11:59:28;;;;;;;58.38;31.92;;;3.60;99.90;;;;;;5057421;28;20037;-38
2022/01/10 12:02:04;;;;;;;52.42;32.97;;;3.60;99.90;;;;;;5061342;28;20017;-39
2022/01/10 12:04:58;;;;;;;66.30;34.65;;;3.70;99.90;;;;;;5047272;28;20033;-38
2022/01/10 12:07:24;;;;;;;63.55;34.15;;;3.70;99.90;;;;;;5058066;28;20040;-37
2022/01/10 12:09:51;;;;;;;52.08;31.55;;;3.70;99.90;;;;;;5061918;28;20047;-41
2022/01/10 12:12:20;;;;;;;53.60;31.38;;;3.80;99.90;;;;;;5055850;28;20033;-46
2022/01/10 12:14:47;;;;;;;57.70;31.42;;;3.90;99.90;;;;;;5060335;28;20036;-50
2022/01/10 12:17:14;;;;;;;60.20;33.22;;;3.90;99.90;;;;;;5063470;28;20021;-46
2022/01/10 12:19:43;;;;;;;55.80;31.83;;;4.00;99.90;;;;;;5061526;28;20433;-48
2022/01/10 12:22:10;;;;;;;52.03;30.83;;;4.00;99.90;;;;;;5062403;28;20028;-48
2022/01/10 12:24:40;;;;;;;60.72;31.98;;;4.10;99.90;;;;;;5044152;28;20029;-42
2022/01/10 12:27:08;;;;;;;57.63;30.80;;;4.20;99.90;;;;;;5062443;28;20033;-39
2022/01/10 12:29:35;;;;;;;53.45;30.55;;;4.30;99.90;;;;;;5064159;28;20041;-46
2022/01/10 12:32:01;;;;;;;55.38;30.65;;;4.30;99.90;;;;;;5061600;28;20029;-40
2022/01/10 12:34:27;;;;;;;58.00;29.20;;;4.40;99.90;;;;;;5063439;28;20021;-41
2022/01/10 12:36:53;;;;;;;54.55;28.85;;;4.40;99.90;;;;;;5059473;28;20032;-37
2022/01/10 12:39:24;;;;;;;53.35;29.80;;;4.50;99.90;;;;;;5062922;28;20059;-37
2022/01/10 12:41:51;;;;;;;51.72;29.27;;;4.60;99.90;;;;;;5063544;28;20028;-40
2022/01/10 12:44:17;;;;;;;52.38;29.45;;;4.60;99.90;;;;;;5063050;28;20032;-38
2022/01/10 12:46:43;;;;;;;50.00;30.02;;;4.70;99.90;;;;;;5075686;28;20028;-38
2022/01/10 12:49:11;;;;;;;50.22;29.52;;;4.80;99.90;;;;;;5082509;28;20482;-38
2022/01/10 12:51:43;;;;;;;55.08;30.90;;;5.00;99.90;;;;;;5081788;28;20055;-38
2022/01/10 12:54:24;;;;;;;52.30;31.00;;;5.10;99.90;;;;;;5066773;28;20020;-37
2022/01/10 12:56:50;;;;;;;69.13;37.85;;;5.40;99.90;;;;;;5066436;28;20051;-38
2022/01/10 12:59:19;;;;;;;72.10;38.60;;;6.50;99.90;;;;;;5064692;28;20025;-38
2022/01/10 13:01:48;;;;;;;73.82;42.53;;;7.60;99.90;;;;;;5064503;28;20017;-38